METAR Data
IDs: Format: Raw Decoded Include TAF

Data at: 0241 UTC 25 Jan 2020

METAR for:KOTM (Ottumwa Industrial, IA, US)
Text:KOTM 250218Z AUTO 31014KT 9SM OVC010 M01/M02 A2992 RMK AO2 T10061022
Temperature: -0.6°C ( 31°F)
Dewpoint: -2.2°C ( 28°F) [RH = 89%]
Pressure (altimeter):29.92 inches Hg (1013.3 mb)
Winds:from the NW (310 degrees) at 16 MPH (14 knots; 7.2 m/s)
Visibility: 9 sm ( 14 km)
Ceiling:1000 feet AGL
Clouds: overcast cloud deck at 1000 feet AGL
QC Flag:automated observation with no human augmentation